sensor_id;sensor_type;location;lat;lon;timestamp;P1;durP1;ratioP1;P2;durP2;ratioP2
41434;SDS011;27177;22.262;114.192;2022-08-01T00:01:56;5.20;;;4.78;;
41434;SDS011;27177;22.262;114.192;2022-08-01T00:04:23;5.10;;;4.60;;
41434;SDS011;27177;22.262;114.192;2022-08-01T00:06:50;5.22;;;4.82;;
41434;SDS011;27177;22.262;114.192;2022-08-01T00:09:17;4.90;;;4.40;;
41434;SDS011;27177;22.262;114.192;2022-08-01T00:11:44;5.97;;;4.80;;
41434;SDS011;27177;22.262;114.192;2022-08-01T00:14:11;4.88;;;4.47;;
41434;SDS011;27177;22.262;114.192;2022-08-01T00:16:38;5.05;;;4.65;;
41434;SDS011;27177;22.262;114.192;2022-08-01T00:19:05;5.07;;;4.57;;
41434;SDS011;27177;22.262;114.192;2022-08-01T00:21:32;4.47;;;4.07;;
41434;SDS011;27177;22.262;114.192;2022-08-01T00:24:02;4.32;;;3.95;;
41434;SDS011;27177;22.262;114.192;2022-08-01T00:26:29;4.43;;;4.03;;
41434;SDS011;27177;22.262;114.192;2022-08-01T00:28:56;4.10;;;3.75;;
41434;SDS011;27177;22.262;114.192;2022-08-01T00:31:23;5.50;;;4.22;;
41434;SDS011;27177;22.262;114.192;2022-08-01T00:33:50;4.30;;;3.90;;
41434;SDS011;27177;22.262;114.192;2022-08-01T00:36:17;4.22;;;3.85;;
41434;SDS011;27177;22.262;114.192;2022-08-01T00:38:44;3.85;;;3.45;;
41434;SDS011;27177;22.262;114.192;2022-08-01T00:41:11;4.15;;;3.70;;
41434;SDS011;27177;22.262;114.192;2022-08-01T00:43:38;4.10;;;3.70;;
41434;SDS011;27177;22.262;114.192;2022-08-01T00:46:05;5.95;;;3.92;;
41434;SDS011;27177;22.262;114.192;2022-08-01T00:48:32;3.72;;;3.42;;
41434;SDS011;27177;22.262;114.192;2022-08-01T00:50:58;5.25;;;4.22;;
41434;SDS011;27177;22.262;114.192;2022-08-01T00:53:25;4.85;;;4.40;;
41434;SDS011;27177;22.262;114.192;2022-08-01T00:55:53;5.57;;;4.28;;
41434;SDS011;27177;22.262;114.192;2022-08-01T00:58:20;4.63;;;4.20;;
41434;SDS011;27177;22.262;114.192;2022-08-01T01:00:56;4.70;;;4.20;;
41434;SDS011;27177;22.262;114.192;2022-08-01T01:03:23;4.65;;;4.25;;
41434;SDS011;27177;22.262;114.192;2022-08-01T01:05:59;5.22;;;3.90;;
41434;SDS011;27177;22.262;114.192;2022-08-01T01:09:03;5.28;;;4.07;;
41434;SDS011;27177;22.262;114.192;2022-08-01T01:11:37;4.68;;;4.28;;
41434;SDS011;27177;22.262;114.192;2022-08-01T01:16:43;5.10;;;4.60;;
41434;SDS011;27177;22.262;114.192;2022-08-01T01:19:13;5.20;;;4.60;;
41434;SDS011;27177;22.262;114.192;2022-08-01T01:30:29;4.93;;;3.40;;
41434;SDS011;27177;22.262;114.192;2022-08-01T01:32:59;4.18;;;3.45;;
41434;SDS011;27177;22.262;114.192;2022-08-01T01:35:32;4.32;;;3.38;;
41434;SDS011;27177;22.262;114.192;2022-08-01T01:40:59;4.63;;;4.05;;
41434;SDS011;27177;22.262;114.192;2022-08-01T01:43:27;6.18;;;4.07;;
41434;SDS011;27177;22.262;114.192;2022-08-01T01:45:58;4.43;;;3.90;;
41434;SDS011;27177;22.262;114.192;2022-08-01T01:48:26;4.55;;;3.85;;
41434;SDS011;27177;22.262;114.192;2022-08-01T01:50:54;4.20;;;3.90;;
41434;SDS011;27177;22.262;114.192;2022-08-01T01:53:22;6.47;;;4.15;;
41434;SDS011;27177;22.262;114.192;2022-08-01T01:55:51;4.72;;;4.32;;
41434;SDS011;27177;22.262;114.192;2022-08-01T01:58:21;4.75;;;4.18;;
41434;SDS011;27177;22.262;114.192;2022-08-01T02:00:50;4.93;;;4.28;;
41434;SDS011;27177;22.262;114.192;2022-08-01T02:03:20;5.45;;;3.83;;
41434;SDS011;27177;22.262;114.192;2022-08-01T02:05:47;4.68;;;3.92;;
41434;SDS011;27177;22.262;114.192;2022-08-01T02:10:53;4.53;;;4.00;;
41434;SDS011;27177;22.262;114.192;2022-08-01T02:13:40;4.55;;;3.95;;
41434;SDS011;27177;22.262;114.192;2022-08-01T02:16:09;5.38;;;3.63;;
41434;SDS011;27177;22.262;114.192;2022-08-01T02:21:13;6.63;;;4.60;;
41434;SDS011;27177;22.262;114.192;2022-08-01T02:23:45;5.10;;;4.60;;
41434;SDS011;27177;22.262;114.192;2022-08-01T02:26:14;5.70;;;4.35;;
41434;SDS011;27177;22.262;114.192;2022-08-01T02:28:47;4.82;;;3.90;;
41434;SDS011;27177;22.262;114.192;2022-08-01T02:31:21;3.78;;;3.00;;
41434;SDS011;27177;22.262;114.192;2022-08-01T02:34:10;3.50;;;3.20;;
41434;SDS011;27177;22.262;114.192;2022-08-01T02:36:39;3.10;;;2.80;;
41434;SDS011;27177;22.262;114.192;2022-08-01T02:39:09;3.35;;;2.80;;
41434;SDS011;27177;22.262;114.192;2022-08-01T02:41:48;3.50;;;2.65;;
41434;SDS011;27177;22.262;114.192;2022-08-01T02:44:28;3.03;;;2.75;;
41434;SDS011;27177;22.262;114.192;2022-08-01T02:47:02;3.03;;;2.72;;
41434;SDS011;27177;22.262;114.192;2022-08-01T02:49:34;3.00;;;2.80;;
41434;SDS011;27177;22.262;114.192;2022-08-01T02:52:11;3.60;;;3.30;;
41434;SDS011;27177;22.262;114.192;2022-08-01T02:57:09;5.13;;;3.80;;
41434;SDS011;27177;22.262;114.192;2022-08-01T02:59:37;4.15;;;3.75;;
41434;SDS011;27177;22.262;114.192;2022-08-01T03:02:05;9.48;;;4.07;;
41434;SDS011;27177;22.262;114.192;2022-08-01T03:04:34;4.63;;;3.90;;
41434;SDS011;27177;22.262;114.192;2022-08-01T03:07:04;4.32;;;3.92;;
41434;SDS011;27177;22.262;114.192;2022-08-01T03:09:35;3.92;;;3.22;;
41434;SDS011;27177;22.262;114.192;2022-08-01T03:12:06;4.40;;;3.80;;
41434;SDS011;27177;22.262;114.192;2022-08-01T03:14:39;5.03;;;4.00;;
41434;SDS011;27177;22.262;114.192;2022-08-01T03:17:08;4.03;;;3.63;;
41434;SDS011;27177;22.262;114.192;2022-08-01T03:19:36;4.72;;;3.80;;
41434;SDS011;27177;22.262;114.192;2022-08-01T03:22:06;4.18;;;3.78;;
41434;SDS011;27177;22.262;114.192;2022-08-01T03:24:36;4.50;;;4.10;;
41434;SDS011;27177;22.262;114.192;2022-08-01T03:27:06;4.43;;;4.03;;
41434;SDS011;27177;22.262;114.192;2022-08-01T03:29:34;4.18;;;3.78;;
41434;SDS011;27177;22.262;114.192;2022-08-01T03:32:03;4.13;;;3.60;;
41434;SDS011;27177;22.262;114.192;2022-08-01T03:34:31;4.28;;;3.88;;
41434;SDS011;27177;22.262;114.192;2022-08-01T03:39:29;8.93;;;4.32;;
41434;SDS011;27177;22.262;114.192;2022-08-01T03:42:05;5.45;;;4.50;;
41434;SDS011;27177;22.262;114.192;2022-08-01T03:44:38;4.22;;;3.83;;
41434;SDS011;27177;22.262;114.192;2022-08-01T03:47:07;4.70;;;4.20;;
41434;SDS011;27177;22.262;114.192;2022-08-01T03:49:37;4.30;;;3.90;;
41434;SDS011;27177;22.262;114.192;2022-08-01T03:52:08;4.78;;;3.90;;
41434;SDS011;27177;22.262;114.192;2022-08-01T03:54:38;5.75;;;4.32;;
41434;SDS011;27177;22.262;114.192;2022-08-01T03:57:11;5.82;;;4.72;;
41434;SDS011;27177;22.262;114.192;2022-08-01T03:59:39;7.45;;;4.95;;
41434;SDS011;27177;22.262;114.192;2022-08-01T04:02:07;6.35;;;4.28;;
41434;SDS011;27177;22.262;114.192;2022-08-01T04:04:34;4.80;;;4.30;;
41434;SDS011;27177;22.262;114.192;2022-08-01T04:07:02;5.55;;;4.25;;
41434;SDS011;27177;22.262;114.192;2022-08-01T04:09:33;3.65;;;3.22;;
41434;SDS011;27177;22.262;114.192;2022-08-01T04:12:00;4.35;;;3.78;;
41434;SDS011;27177;22.262;114.192;2022-08-01T04:14:27;4.35;;;3.90;;
41434;SDS011;27177;22.262;114.192;2022-08-01T04:16:54;3.83;;;3.45;;
41434;SDS011;27177;22.262;114.192;2022-08-01T04:19:22;3.88;;;3.45;;
41434;SDS011;27177;22.262;114.192;2022-08-01T04:21:49;4.57;;;3.80;;
41434;SDS011;27177;22.262;114.192;2022-08-01T04:24:17;4.60;;;3.95;;
41434;SDS011;27177;22.262;114.192;2022-08-01T04:26:46;3.75;;;3.33;;
41434;SDS011;27177;22.262;114.192;2022-08-01T04:29:16;5.00;;;3.92;;
41434;SDS011;27177;22.262;114.192;2022-08-01T04:31:45;4.57;;;4.05;;
41434;SDS011;27177;22.262;114.192;2022-08-01T04:34:15;4.95;;;3.55;;
41434;SDS011;27177;22.262;114.192;2022-08-01T04:36:47;4.57;;;3.80;;
41434;SDS011;27177;22.262;114.192;2022-08-01T04:39:15;5.50;;;3.65;;
41434;SDS011;27177;22.262;114.192;2022-08-01T04:41:45;4.18;;;3.72;;
41434;SDS011;27177;22.262;114.192;2022-08-01T04:44:13;5.32;;;4.22;;
41434;SDS011;27177;22.262;114.192;2022-08-01T04:46:41;4.72;;;3.90;;
41434;SDS011;27177;22.262;114.192;2022-08-01T04:49:10;3.85;;;3.55;;
41434;SDS011;27177;22.262;114.192;2022-08-01T04:51:49;3.90;;;3.45;;
41434;SDS011;27177;22.262;114.192;2022-08-01T04:54:17;4.00;;;3.60;;
41434;SDS011;27177;22.262;114.192;2022-08-01T04:56:44;3.50;;;3.20;;
41434;SDS011;27177;22.262;114.192;2022-08-01T04:59:11;3.90;;;3.10;;
41434;SDS011;27177;22.262;114.192;2022-08-01T05:01:56;4.30;;;3.03;;
41434;SDS011;27177;22.262;114.192;2022-08-01T05:04:23;4.20;;;3.05;;
41434;SDS011;27177;22.262;114.192;2022-08-01T05:06:50;3.45;;;3.08;;
41434;SDS011;27177;22.262;114.192;2022-08-01T05:09:17;3.47;;;3.08;;
41434;SDS011;27177;22.262;114.192;2022-08-01T05:11:44;3.53;;;2.80;;
41434;SDS011;27177;22.262;114.192;2022-08-01T05:14:11;3.55;;;3.20;;
41434;SDS011;27177;22.262;114.192;2022-08-01T05:16:38;3.13;;;2.83;;
41434;SDS011;27177;22.262;114.192;2022-08-01T05:19:05;3.35;;;2.85;;
41434;SDS011;27177;22.262;114.192;2022-08-01T05:21:33;3.90;;;3.00;;
41434;SDS011;27177;22.262;114.192;2022-08-01T05:24:01;6.78;;;3.10;;
41434;SDS011;27177;22.262;114.192;2022-08-01T05:26:28;4.03;;;2.65;;
41434;SDS011;27177;22.262;114.192;2022-08-01T05:28:55;3.25;;;2.70;;
41434;SDS011;27177;22.262;114.192;2022-08-01T05:31:22;2.80;;;2.33;;
41434;SDS011;27177;22.262;114.192;2022-08-01T05:33:49;4.10;;;2.60;;
41434;SDS011;27177;22.262;114.192;2022-08-01T05:36:16;3.08;;;2.72;;
41434;SDS011;27177;22.262;114.192;2022-08-01T05:38:43;3.05;;;2.65;;
41434;SDS011;27177;22.262;114.192;2022-08-01T05:41:10;3.90;;;2.45;;
41434;SDS011;27177;22.262;114.192;2022-08-01T05:43:37;2.58;;;2.33;;
41434;SDS011;27177;22.262;114.192;2022-08-01T05:46:04;3.40;;;2.40;;
41434;SDS011;27177;22.262;114.192;2022-08-01T05:48:31;2.60;;;2.30;;
41434;SDS011;27177;22.262;114.192;2022-08-01T05:50:58;3.85;;;2.50;;
41434;SDS011;27177;22.262;114.192;2022-08-01T05:53:25;3.10;;;2.30;;
41434;SDS011;27177;22.262;114.192;2022-08-01T05:55:53;2.67;;;1.90;;
41434;SDS011;27177;22.262;114.192;2022-08-01T05:58:21;2.78;;;2.05;;
41434;SDS011;27177;22.262;114.192;2022-08-01T06:00:48;2.80;;;2.25;;
41434;SDS011;27177;22.262;114.192;2022-08-01T06:03:15;3.28;;;2.03;;
41434;SDS011;27177;22.262;114.192;2022-08-01T06:05:44;2.83;;;2.33;;
41434;SDS011;27177;22.262;114.192;2022-08-01T06:08:11;2.47;;;2.10;;
41434;SDS011;27177;22.262;114.192;2022-08-01T06:10:38;4.85;;;2.28;;
41434;SDS011;27177;22.262;114.192;2022-08-01T06:13:05;2.10;;;1.92;;
41434;SDS011;27177;22.262;114.192;2022-08-01T06:15:32;3.10;;;2.30;;
41434;SDS011;27177;22.262;114.192;2022-08-01T06:17:59;2.72;;;2.10;;
41434;SDS011;27177;22.262;114.192;2022-08-01T06:20:26;3.22;;;1.92;;
41434;SDS011;27177;22.262;114.192;2022-08-01T06:22:56;3.67;;;2.10;;
41434;SDS011;27177;22.262;114.192;2022-08-01T06:25:23;2.30;;;2.00;;
41434;SDS011;27177;22.262;114.192;2022-08-01T06:27:50;2.40;;;1.90;;
41434;SDS011;27177;22.262;114.192;2022-08-01T06:30:17;2.20;;;1.98;;
41434;SDS011;27177;22.262;114.192;2022-08-01T06:32:44;2.58;;;1.92;;
41434;SDS011;27177;22.262;114.192;2022-08-01T06:35:12;2.47;;;1.88;;
41434;SDS011;27177;22.262;114.192;2022-08-01T06:37:40;2.95;;;1.70;;
41434;SDS011;27177;22.262;114.192;2022-08-01T06:40:08;4.30;;;2.17;;
41434;SDS011;27177;22.262;114.192;2022-08-01T06:42:36;2.50;;;1.85;;
41434;SDS011;27177;22.262;114.192;2022-08-01T06:45:09;3.28;;;2.17;;
41434;SDS011;27177;22.262;114.192;2022-08-01T06:47:37;2.65;;;2.13;;
41434;SDS011;27177;22.262;114.192;2022-08-01T06:50:05;2.13;;;1.92;;
41434;SDS011;27177;22.262;114.192;2022-08-01T06:52:34;3.33;;;2.38;;
41434;SDS011;27177;22.262;114.192;2022-08-01T06:55:02;3.22;;;2.50;;
41434;SDS011;27177;22.262;114.192;2022-08-01T06:57:29;2.70;;;2.38;;
41434;SDS011;27177;22.262;114.192;2022-08-01T06:59:57;5.10;;;3.47;;
41434;SDS011;27177;22.262;114.192;2022-08-01T07:02:26;3.22;;;2.30;;
41434;SDS011;27177;22.262;114.192;2022-08-01T07:04:53;2.83;;;2.53;;
41434;SDS011;27177;22.262;114.192;2022-08-01T07:07:20;2.55;;;2.35;;
41434;SDS011;27177;22.262;114.192;2022-08-01T07:09:47;3.30;;;2.72;;
41434;SDS011;27177;22.262;114.192;2022-08-01T07:12:14;3.60;;;3.30;;
41434;SDS011;27177;22.262;114.192;2022-08-01T07:14:41;3.50;;;2.90;;
41434;SDS011;27177;22.262;114.192;2022-08-01T07:17:08;2.80;;;2.55;;
41434;SDS011;27177;22.262;114.192;2022-08-01T07:19:35;3.47;;;2.90;;
41434;SDS011;27177;22.262;114.192;2022-08-01T07:22:02;3.47;;;3.17;;
41434;SDS011;27177;22.262;114.192;2022-08-01T07:24:29;4.00;;;3.60;;
41434;SDS011;27177;22.262;114.192;2022-08-01T07:26:57;4.18;;;3.78;;
41434;SDS011;27177;22.262;114.192;2022-08-01T07:29:24;4.65;;;3.60;;
41434;SDS011;27177;22.262;114.192;2022-08-01T07:31:53;4.07;;;3.00;;
41434;SDS011;27177;22.262;114.192;2022-08-01T07:34:22;4.67;;;3.57;;
41434;SDS011;27177;22.262;114.192;2022-08-01T07:36:50;3.50;;;3.20;;
41434;SDS011;27177;22.262;114.192;2022-08-01T07:39:17;3.97;;;3.38;;
41434;SDS011;27177;22.262;114.192;2022-08-01T07:41:45;3.33;;;3.03;;
41434;SDS011;27177;22.262;114.192;2022-08-01T07:44:12;4.00;;;2.95;;
41434;SDS011;27177;22.262;114.192;2022-08-01T07:46:39;3.63;;;3.00;;
41434;SDS011;27177;22.262;114.192;2022-08-01T07:49:07;4.03;;;3.10;;
41434;SDS011;27177;22.262;114.192;2022-08-01T07:51:34;5.22;;;2.90;;
41434;SDS011;27177;22.262;114.192;2022-08-01T07:54:01;3.30;;;3.00;;
41434;SDS011;27177;22.262;114.192;2022-08-01T07:56:28;3.80;;;3.13;;
41434;SDS011;27177;22.262;114.192;2022-08-01T07:58:55;4.85;;;2.88;;
41434;SDS011;27177;22.262;114.192;2022-08-01T08:01:22;3.30;;;3.00;;
41434;SDS011;27177;22.262;114.192;2022-08-01T08:03:49;4.05;;;2.58;;
41434;SDS011;27177;22.262;114.192;2022-08-01T08:06:15;4.10;;;2.42;;
41434;SDS011;27177;22.262;114.192;2022-08-01T08:08:42;2.75;;;2.30;;
41434;SDS011;27177;22.262;114.192;2022-08-01T08:11:10;3.40;;;2.17;;
41434;SDS011;27177;22.262;114.192;2022-08-01T08:13:37;2.80;;;2.25;;
41434;SDS011;27177;22.262;114.192;2022-08-01T08:16:04;2.88;;;1.95;;
41434;SDS011;27177;22.262;114.192;2022-08-01T08:18:31;4.13;;;2.15;;
41434;SDS011;27177;22.262;114.192;2022-08-01T08:20:58;3.65;;;2.30;;
41434;SDS011;27177;22.262;114.192;2022-08-01T08:23:25;2.67;;;1.85;;
41434;SDS011;27177;22.262;114.192;2022-08-01T08:26:10;2.33;;;1.58;;
41434;SDS011;27177;22.262;114.192;2022-08-01T08:28:37;3.75;;;1.90;;
41434;SDS011;27177;22.262;114.192;2022-08-01T08:31:06;2.13;;;1.70;;
41434;SDS011;27177;22.262;114.192;2022-08-01T08:33:34;2.90;;;1.70;;
41434;SDS011;27177;22.262;114.192;2022-08-01T08:36:01;2.47;;;1.58;;
41434;SDS011;27177;22.262;114.192;2022-08-01T08:38:28;2.28;;;2.08;;
41434;SDS011;27177;22.262;114.192;2022-08-01T08:40:55;1.90;;;1.70;;
41434;SDS011;27177;22.262;114.192;2022-08-01T08:43:22;1.70;;;1.60;;
41434;SDS011;27177;22.262;114.192;2022-08-01T08:45:52;2.42;;;1.60;;
41434;SDS011;27177;22.262;114.192;2022-08-01T08:48:20;1.70;;;1.60;;
41434;SDS011;27177;22.262;114.192;2022-08-01T08:50:48;3.05;;;1.60;;
41434;SDS011;27177;22.262;114.192;2022-08-01T08:53:17;2.70;;;1.70;;
41434;SDS011;27177;22.262;114.192;2022-08-01T08:55:45;2.03;;;1.77;;
41434;SDS011;27177;22.262;114.192;2022-08-01T08:58:15;1.38;;;1.27;;
41434;SDS011;27177;22.262;114.192;2022-08-01T09:00:45;2.05;;;1.42;;
41434;SDS011;27177;22.262;114.192;2022-08-01T09:03:12;1.58;;;1.48;;
41434;SDS011;27177;22.262;114.192;2022-08-01T09:05:39;2.42;;;1.55;;
41434;SDS011;27177;22.262;114.192;2022-08-01T09:08:06;2.95;;;1.75;;
41434;SDS011;27177;22.262;114.192;2022-08-01T09:10:34;1.77;;;1.40;;
41434;SDS011;27177;22.262;114.192;2022-08-01T09:13:05;1.50;;;1.40;;
41434;SDS011;27177;22.262;114.192;2022-08-01T09:15:57;2.78;;;1.60;;
41434;SDS011;27177;22.262;114.192;2022-08-01T09:18:29;2.05;;;1.40;;
41434;SDS011;27177;22.262;114.192;2022-08-01T09:23:41;1.75;;;1.45;;
41434;SDS011;27177;22.262;114.192;2022-08-01T09:26:08;1.50;;;1.40;;
41434;SDS011;27177;22.262;114.192;2022-08-01T09:28:37;2.35;;;1.42;;
41434;SDS011;27177;22.262;114.192;2022-08-01T09:31:06;1.80;;;1.50;;
41434;SDS011;27177;22.262;114.192;2022-08-01T09:33:56;5.55;;;1.50;;
41434;SDS011;27177;22.262;114.192;2022-08-01T09:36:27;3.25;;;1.80;;
41434;SDS011;27177;22.262;114.192;2022-08-01T09:39:14;3.83;;;1.65;;
41434;SDS011;27177;22.262;114.192;2022-08-01T09:41:41;2.15;;;1.70;;
41434;SDS011;27177;22.262;114.192;2022-08-01T09:44:08;1.85;;;1.65;;
41434;SDS011;27177;22.262;114.192;2022-08-01T09:46:35;2.22;;;1.90;;
41434;SDS011;27177;22.262;114.192;2022-08-01T09:49:14;2.60;;;1.98;;
41434;SDS011;27177;22.262;114.192;2022-08-01T09:51:53;2.10;;;1.70;;
41434;SDS011;27177;22.262;114.192;2022-08-01T09:54:32;2.90;;;1.70;;
41434;SDS011;27177;22.262;114.192;2022-08-01T09:57:13;2.17;;;1.73;;
41434;SDS011;27177;22.262;114.192;2022-08-01T09:59:43;2.65;;;1.70;;
41434;SDS011;27177;22.262;114.192;2022-08-01T10:02:11;2.65;;;1.67;;
41434;SDS011;27177;22.262;114.192;2022-08-01T10:04:50;1.80;;;1.50;;
41434;SDS011;27177;22.262;114.192;2022-08-01T10:07:18;1.90;;;1.52;;
41434;SDS011;27177;22.262;114.192;2022-08-01T10:09:45;2.75;;;1.65;;
41434;SDS011;27177;22.262;114.192;2022-08-01T10:12:17;1.67;;;1.58;;
41434;SDS011;27177;22.262;114.192;2022-08-01T10:14:47;2.20;;;1.60;;
41434;SDS011;27177;22.262;114.192;2022-08-01T10:17:16;2.10;;;1.77;;
41434;SDS011;27177;22.262;114.192;2022-08-01T10:19:44;2.42;;;1.52;;
41434;SDS011;27177;22.262;114.192;2022-08-01T10:22:14;2.45;;;1.80;;
41434;SDS011;27177;22.262;114.192;2022-08-01T10:24:44;2.50;;;1.60;;
41434;SDS011;27177;22.262;114.192;2022-08-01T10:27:13;2.45;;;1.80;;
41434;SDS011;27177;22.262;114.192;2022-08-01T10:29:46;1.85;;;1.60;;
41434;SDS011;27177;22.262;114.192;2022-08-01T10:32:13;2.20;;;1.70;;
41434;SDS011;27177;22.262;114.192;2022-08-01T10:34:41;1.90;;;1.70;;
41434;SDS011;27177;22.262;114.192;2022-08-01T10:37:09;2.63;;;2.10;;
41434;SDS011;27177;22.262;114.192;2022-08-01T10:39:36;2.30;;;2.03;;
41434;SDS011;27177;22.262;114.192;2022-08-01T10:42:05;2.58;;;1.73;;
41434;SDS011;27177;22.262;114.192;2022-08-01T10:44:35;3.27;;;1.93;;
41434;SDS011;27177;22.262;114.192;2022-08-01T10:47:06;2.00;;;1.75;;
41434;SDS011;27177;22.262;114.192;2022-08-01T10:49:49;1.75;;;1.60;;
41434;SDS011;27177;22.262;114.192;2022-08-01T10:52:22;3.05;;;2.13;;
41434;SDS011;27177;22.262;114.192;2022-08-01T10:54:49;3.15;;;2.20;;
41434;SDS011;27177;22.262;114.192;2022-08-01T10:57:51;2.83;;;2.10;;
41434;SDS011;27177;22.262;114.192;2022-08-01T11:00:20;3.33;;;1.70;;
41434;SDS011;27177;22.262;114.192;2022-08-01T11:03:00;3.28;;;2.20;;
41434;SDS011;27177;22.262;114.192;2022-08-01T11:05:34;2.30;;;2.10;;
41434;SDS011;27177;22.262;114.192;2022-08-01T11:08:03;2.67;;;2.47;;
41434;SDS011;27177;22.262;114.192;2022-08-01T11:10:42;3.65;;;1.98;;
41434;SDS011;27177;22.262;114.192;2022-08-01T11:13:09;2.80;;;2.03;;
41434;SDS011;27177;22.262;114.192;2022-08-01T11:15:39;2.27;;;1.77;;
41434;SDS011;27177;22.262;114.192;2022-08-01T11:20:59;1.92;;;1.70;;
41434;SDS011;27177;22.262;114.192;2022-08-01T11:23:27;2.20;;;1.92;;
41434;SDS011;27177;22.262;114.192;2022-08-01T11:28:29;3.20;;;2.00;;
41434;SDS011;27177;22.262;114.192;2022-08-01T11:41:15;2.15;;;1.70;;
41434;SDS011;27177;22.262;114.192;2022-08-01T11:43:55;2.38;;;2.00;;
41434;SDS011;27177;22.262;114.192;2022-08-01T11:51:56;2.28;;;2.05;;
41434;SDS011;27177;22.262;114.192;2022-08-01T11:54:29;11.70;;;2.97;;
41434;SDS011;27177;22.262;114.192;2022-08-01T11:57:01;2.22;;;2.00;;
41434;SDS011;27177;22.262;114.192;2022-08-01T11:59:45;1.88;;;1.75;;
41434;SDS011;27177;22.262;114.192;2022-08-01T12:02:18;2.10;;;1.90;;
41434;SDS011;27177;22.262;114.192;2022-08-01T12:04:56;4.45;;;2.47;;
41434;SDS011;27177;22.262;114.192;2022-08-01T12:07:25;2.15;;;1.95;;
41434;SDS011;27177;22.262;114.192;2022-08-01T12:09:57;3.03;;;2.28;;
41434;SDS011;27177;22.262;114.192;2022-08-01T12:12:26;2.83;;;1.92;;
41434;SDS011;27177;22.262;114.192;2022-08-01T12:14:58;2.58;;;2.22;;
41434;SDS011;27177;22.262;114.192;2022-08-01T12:17:34;3.60;;;2.47;;
41434;SDS011;27177;22.262;114.192;2022-08-01T12:20:04;2.80;;;1.80;;
41434;SDS011;27177;22.262;114.192;2022-08-01T12:25:12;2.85;;;2.25;;
41434;SDS011;27177;22.262;114.192;2022-08-01T12:27:46;3.75;;;2.35;;
41434;SDS011;27177;22.262;114.192;2022-08-01T12:30:28;3.33;;;2.50;;
41434;SDS011;27177;22.262;114.192;2022-08-01T12:33:08;3.33;;;2.25;;
41434;SDS011;27177;22.262;114.192;2022-08-01T12:35:38;3.63;;;2.20;;
41434;SDS011;27177;22.262;114.192;2022-08-01T12:38:13;3.35;;;2.45;;
41434;SDS011;27177;22.262;114.192;2022-08-01T12:41:05;2.70;;;2.38;;
41434;SDS011;27177;22.262;114.192;2022-08-01T12:43:37;4.90;;;2.28;;
41434;SDS011;27177;22.262;114.192;2022-08-01T12:46:06;3.58;;;2.20;;
41434;SDS011;27177;22.262;114.192;2022-08-01T12:48:36;2.97;;;2.45;;
41434;SDS011;27177;22.262;114.192;2022-08-01T12:51:04;3.15;;;2.20;;
41434;SDS011;27177;22.262;114.192;2022-08-01T12:53:34;2.63;;;1.97;;
41434;SDS011;27177;22.262;114.192;2022-08-01T12:56:01;2.95;;;2.45;;
41434;SDS011;27177;22.262;114.192;2022-08-01T12:58:32;3.58;;;2.28;;
41434;SDS011;27177;22.262;114.192;2022-08-01T13:01:06;2.42;;;2.22;;
41434;SDS011;27177;22.262;114.192;2022-08-01T13:03:35;2.20;;;2.00;;
41434;SDS011;27177;22.262;114.192;2022-08-01T13:06:08;4.30;;;2.10;;
41434;SDS011;27177;22.262;114.192;2022-08-01T13:08:40;3.92;;;2.45;;
41434;SDS011;27177;22.262;114.192;2022-08-01T13:11:08;4.10;;;2.20;;
41434;SDS011;27177;22.262;114.192;2022-08-01T13:13:40;2.95;;;2.53;;
41434;SDS011;27177;22.262;114.192;2022-08-01T13:16:09;2.88;;;2.30;;
41434;SDS011;27177;22.262;114.192;2022-08-01T13:18:36;3.28;;;2.63;;
41434;SDS011;27177;22.262;114.192;2022-08-01T13:23:40;2.85;;;2.55;;
41434;SDS011;27177;22.262;114.192;2022-08-01T13:26:41;2.50;;;2.30;;
41434;SDS011;27177;22.262;114.192;2022-08-01T13:29:32;3.13;;;2.83;;
41434;SDS011;27177;22.262;114.192;2022-08-01T13:34:43;3.53;;;2.25;;
41434;SDS011;27177;22.262;114.192;2022-08-01T13:37:10;3.05;;;2.47;;
41434;SDS011;27177;22.262;114.192;2022-08-01T13:39:38;5.13;;;2.40;;
41434;SDS011;27177;22.262;114.192;2022-08-01T13:42:14;3.00;;;2.22;;
41434;SDS011;27177;22.262;114.192;2022-08-01T13:44:42;3.30;;;2.55;;
41434;SDS011;27177;22.262;114.192;2022-08-01T13:47:13;2.60;;;2.40;;
41434;SDS011;27177;22.262;114.192;2022-08-01T13:49:40;3.80;;;2.75;;
41434;SDS011;27177;22.262;114.192;2022-08-01T13:52:07;3.03;;;2.20;;
41434;SDS011;27177;22.262;114.192;2022-08-01T13:54:34;3.88;;;2.53;;
41434;SDS011;27177;22.262;114.192;2022-08-01T13:57:01;2.72;;;2.15;;
41434;SDS011;27177;22.262;114.192;2022-08-01T13:59:28;3.20;;;2.47;;
41434;SDS011;27177;22.262;114.192;2022-08-01T14:01:55;3.45;;;2.65;;
41434;SDS011;27177;22.262;114.192;2022-08-01T14:04:22;2.92;;;2.22;;
41434;SDS011;27177;22.262;114.192;2022-08-01T14:06:51;3.35;;;2.60;;
41434;SDS011;27177;22.262;114.192;2022-08-01T14:09:18;3.05;;;2.35;;
41434;SDS011;27177;22.262;114.192;2022-08-01T14:11:48;3.45;;;2.45;;
41434;SDS011;27177;22.262;114.192;2022-08-01T14:14:15;2.55;;;2.28;;
41434;SDS011;27177;22.262;114.192;2022-08-01T14:16:42;3.45;;;2.60;;
41434;SDS011;27177;22.262;114.192;2022-08-01T14:19:10;2.60;;;2.40;;
41434;SDS011;27177;22.262;114.192;2022-08-01T14:21:37;3.38;;;2.45;;
41434;SDS011;27177;22.262;114.192;2022-08-01T14:24:04;3.50;;;2.40;;
41434;SDS011;27177;22.262;114.192;2022-08-01T14:26:32;2.72;;;2.05;;
41434;SDS011;27177;22.262;114.192;2022-08-01T14:28:59;2.35;;;2.13;;
41434;SDS011;27177;22.262;114.192;2022-08-01T14:31:26;3.80;;;2.22;;
41434;SDS011;27177;22.262;114.192;2022-08-01T14:33:55;3.55;;;2.45;;
41434;SDS011;27177;22.262;114.192;2022-08-01T14:36:22;2.15;;;1.95;;
41434;SDS011;27177;22.262;114.192;2022-08-01T14:38:48;4.43;;;2.40;;
41434;SDS011;27177;22.262;114.192;2022-08-01T14:41:16;4.22;;;2.13;;
41434;SDS011;27177;22.262;114.192;2022-08-01T14:43:49;3.83;;;2.40;;
41434;SDS011;27177;22.262;114.192;2022-08-01T14:46:16;3.17;;;2.50;;
41434;SDS011;27177;22.262;114.192;2022-08-01T15:22:15;3.05;;;2.75;;
41434;SDS011;27177;22.262;114.192;2022-08-01T15:32:28;5.95;;;4.35;;
41434;SDS011;27177;22.262;114.192;2022-08-01T15:34:55;4.07;;;2.30;;
41434;SDS011;27177;22.262;114.192;2022-08-01T15:37:22;3.25;;;2.60;;
41434;SDS011;27177;22.262;114.192;2022-08-01T15:39:50;2.95;;;2.50;;
41434;SDS011;27177;22.262;114.192;2022-08-01T15:53:04;2.70;;;2.17;;
41434;SDS011;27177;22.262;114.192;2022-08-01T16:13:39;3.05;;;2.65;;
41434;SDS011;27177;22.262;114.192;2022-08-01T16:21:17;3.17;;;2.40;;
41434;SDS011;27177;22.262;114.192;2022-08-01T16:23:44;2.80;;;2.08;;
41434;SDS011;27177;22.262;114.192;2022-08-01T16:26:12;3.53;;;2.65;;
41434;SDS011;27177;22.262;114.192;2022-08-01T16:28:39;2.53;;;2.33;;
41434;SDS011;27177;22.262;114.192;2022-08-01T16:31:06;4.00;;;2.10;;
41434;SDS011;27177;22.262;114.192;2022-08-01T16:33:33;3.00;;;2.28;;
41434;SDS011;27177;22.262;114.192;2022-08-01T16:36:00;2.83;;;2.50;;
41434;SDS011;27177;22.262;114.192;2022-08-01T16:38:27;4.00;;;2.90;;
41434;SDS011;27177;22.262;114.192;2022-08-01T16:40:54;3.40;;;2.53;;
41434;SDS011;27177;22.262;114.192;2022-08-01T16:43:21;3.92;;;2.40;;
41434;SDS011;27177;22.262;114.192;2022-08-01T16:45:48;3.58;;;2.20;;
41434;SDS011;27177;22.262;114.192;2022-08-01T16:48:15;4.22;;;2.70;;